createdAt,value
2022-07-30T00:01:36.190Z,1.70
2022-07-30T00:04:03.753Z,1.60
2022-07-30T00:06:30.825Z,2.20
2022-07-30T00:08:58.276Z,2.00
2022-07-30T00:11:27.895Z,2.20
2022-07-30T00:13:55.479Z,1.80
2022-07-30T00:16:22.695Z,1.90
2022-07-30T00:18:49.573Z,1.80
2022-07-30T00:21:29.147Z,1.90
2022-07-30T00:24:04.552Z,2.00
2022-07-30T00:26:33.979Z,1.90
2022-07-30T00:29:00.803Z,2.20
2022-07-30T00:31:27.660Z,2.00
2022-07-30T00:33:54.480Z,2.20
2022-07-30T00:36:21.447Z,1.80
2022-07-30T00:38:48.766Z,2.30
2022-07-30T00:41:15.835Z,2.00
2022-07-30T00:43:43.882Z,2.30
2022-07-30T00:46:11.214Z,2.00
2022-07-30T00:48:38.222Z,1.80
2022-07-30T00:51:05.271Z,1.70
2022-07-30T00:53:33.293Z,1.90
2022-07-30T00:56:00.857Z,2.00
2022-07-30T00:58:28.748Z,1.80
2022-07-30T01:00:55.601Z,2.20
2022-07-30T01:03:22.712Z,2.20
2022-07-30T01:05:50.864Z,2.30
2022-07-30T01:08:17.798Z,2.20
2022-07-30T01:10:44.653Z,2.20
2022-07-30T01:13:12.508Z,2.30
2022-07-30T01:15:39.684Z,2.30
2022-07-30T01:18:09.909Z,2.50
2022-07-30T01:20:54.903Z,1.90
2022-07-30T01:23:39.226Z,2.30
2022-07-30T01:26:14.371Z,2.20
2022-07-30T01:28:54.231Z,2.00
2022-07-30T01:31:23.050Z,2.50
2022-07-30T01:33:50.738Z,2.30
2022-07-30T01:36:21.746Z,2.40
2022-07-30T01:41:17.840Z,2.40
2022-07-30T01:43:46.284Z,2.40
2022-07-30T01:46:16.148Z,2.50
2022-07-30T01:48:45.455Z,2.10
2022-07-30T01:51:13.263Z,2.60
2022-07-30T01:53:42.548Z,2.60
2022-07-30T01:56:13.642Z,2.20
2022-07-30T01:58:49.644Z,2.50
2022-07-30T02:01:16.525Z,2.10
2022-07-30T02:03:43.473Z,2.30
2022-07-30T02:06:21.045Z,1.90
2022-07-30T02:09:01.801Z,2.20
2022-07-30T02:12:03.071Z,2.20
2022-07-30T02:14:39.164Z,1.90
2022-07-30T02:17:08.932Z,2.10
2022-07-30T02:19:50.939Z,2.20
2022-07-30T02:22:20.414Z,2.30
2022-07-30T02:24:51.986Z,2.20
2022-07-30T02:27:40.299Z,2.10
2022-07-30T02:30:08.847Z,2.40
2022-07-30T02:32:41.009Z,2.30
2022-07-30T02:35:29.152Z,2.10
2022-07-30T02:37:57.435Z,1.90
2022-07-30T02:40:25.036Z,2.00
2022-07-30T02:42:53.598Z,2.20
2022-07-30T02:45:24.437Z,2.20
2022-07-30T02:48:02.315Z,2.30
2022-07-30T02:50:30.551Z,2.70
2022-07-30T02:53:00.088Z,2.10
2022-07-30T02:55:30.004Z,2.30
2022-07-30T02:57:58.607Z,2.10
2022-07-30T03:00:27.989Z,2.30
2022-07-30T03:02:56.981Z,2.30
2022-07-30T03:05:26.277Z,2.50
2022-07-30T03:07:56.195Z,2.10
2022-07-30T03:10:24.523Z,2.20
2022-07-30T03:12:53.356Z,2.10
2022-07-30T03:15:20.530Z,2.00
2022-07-30T03:17:52.732Z,2.40
2022-07-30T03:20:28.233Z,2.20
2022-07-30T03:22:59.206Z,2.40
2022-07-30T03:27:57.301Z,2.20
2022-07-30T03:30:25.776Z,1.80
2022-07-30T03:32:54.352Z,2.40
2022-07-30T03:35:24.356Z,2.40
2022-07-30T03:37:54.581Z,2.10
2022-07-30T03:40:22.628Z,2.10
2022-07-30T03:42:50.316Z,2.20
2022-07-30T03:45:18.512Z,2.40
2022-07-30T03:47:46.401Z,2.10
2022-07-30T03:50:14.856Z,2.40
2022-07-30T03:52:42.388Z,2.20
2022-07-30T03:55:12.051Z,2.30
2022-07-30T03:57:39.200Z,2.40
2022-07-30T04:00:14.963Z,2.50
2022-07-30T04:02:46.053Z,2.20
2022-07-30T04:07:44.722Z,2.20
2022-07-30T04:10:13.976Z,2.30
2022-07-30T04:12:41.559Z,2.30
2022-07-30T04:16:38.356Z,2.00
2022-07-30T04:18:02.003Z,2.30
2022-07-30T04:20:42.568Z,2.80
2022-07-30T04:23:10.446Z,2.40
2022-07-30T04:25:39.728Z,2.00
2022-07-30T04:28:09.174Z,2.00
2022-07-30T04:30:36.594Z,2.00
2022-07-30T04:33:04.658Z,2.10
2022-07-30T04:35:50.577Z,2.20
2022-07-30T04:38:19.695Z,2.50
2022-07-30T04:40:48.041Z,2.90
2022-07-30T04:43:15.832Z,2.20
2022-07-30T04:45:43.102Z,2.40
2022-07-30T04:48:09.923Z,2.30
2022-07-30T04:50:43.092Z,2.10
2022-07-30T04:53:10.943Z,2.30
2022-07-30T04:55:42.715Z,2.30
2022-07-30T04:58:11.821Z,2.00
2022-07-30T05:00:41.348Z,2.40
2022-07-30T05:03:13.101Z,2.50
2022-07-30T05:05:41.194Z,2.40
2022-07-30T05:08:08.711Z,2.40
2022-07-30T05:10:37.414Z,2.30
2022-07-30T05:13:04.241Z,2.50
2022-07-30T05:15:37.200Z,2.30
2022-07-30T05:18:05.077Z,3.00
2022-07-30T05:20:31.956Z,2.20
2022-07-30T05:22:59.163Z,2.70
2022-07-30T05:25:26.087Z,2.60
2022-07-30T05:27:53.337Z,2.70
2022-07-30T05:30:26.763Z,2.80
2022-07-30T05:32:56.063Z,2.80
2022-07-30T05:35:23.232Z,2.70
2022-07-30T05:37:50.154Z,2.40
2022-07-30T05:40:17.508Z,2.40
2022-07-30T05:42:44.552Z,2.50
2022-07-30T05:45:11.493Z,2.50
2022-07-30T05:47:38.429Z,2.50
2022-07-30T05:50:06.354Z,2.70
2022-07-30T05:52:33.363Z,2.80
2022-07-30T05:55:00.644Z,2.70
2022-07-30T05:57:27.487Z,2.60
2022-07-30T05:59:54.364Z,2.50
2022-07-30T06:02:24.366Z,2.50
2022-07-30T06:04:51.908Z,2.70
2022-07-30T06:07:18.819Z,2.70
2022-07-30T06:09:48.881Z,2.60
2022-07-30T06:12:15.883Z,2.50
2022-07-30T06:14:42.857Z,2.70
2022-07-30T06:17:10.019Z,2.50
2022-07-30T06:19:37.095Z,2.90
2022-07-30T06:22:06.885Z,2.80
2022-07-30T06:24:34.655Z,2.40
2022-07-30T06:27:02.079Z,2.50
2022-07-30T06:29:29.562Z,3.10
2022-07-30T06:31:56.411Z,2.60
2022-07-30T06:34:23.230Z,2.80
2022-07-30T06:36:50.554Z,2.50
2022-07-30T06:39:56.887Z,2.40
2022-07-30T06:42:04.647Z,2.60
2022-07-30T06:44:31.560Z,2.50
2022-07-30T06:46:59.548Z,2.60
2022-07-30T06:49:32.240Z,2.70
2022-07-30T06:51:59.513Z,2.70
2022-07-30T06:54:26.377Z,2.70
2022-07-30T06:56:53.290Z,2.60
2022-07-30T06:59:20.253Z,2.90
2022-07-30T07:01:47.222Z,2.60
2022-07-30T07:04:14.464Z,2.40
2022-07-30T07:06:42.192Z,3.10
2022-07-30T07:09:09.025Z,3.40
2022-07-30T07:11:36.050Z,3.20
2022-07-30T07:14:04.899Z,2.70
2022-07-30T07:16:32.161Z,2.90
2022-07-30T07:18:59.067Z,3.40
2022-07-30T07:21:25.846Z,2.80
2022-07-30T07:23:52.688Z,2.60
2022-07-30T07:26:19.538Z,3.10
2022-07-30T07:28:46.940Z,2.80
2022-07-30T07:32:05.759Z,3.20
2022-07-30T07:34:00.626Z,2.80
2022-07-30T07:36:28.123Z,3.00
2022-07-30T07:38:55.328Z,2.80
2022-07-30T07:41:22.379Z,2.80
2022-07-30T07:43:49.141Z,2.80
2022-07-30T07:46:17.016Z,2.60
2022-07-30T07:49:00.634Z,2.70
2022-07-30T07:51:47.821Z,2.70
2022-07-30T07:54:21.778Z,2.50
2022-07-30T07:56:55.428Z,3.30
2022-07-30T07:59:22.859Z,2.50
2022-07-30T08:01:50.499Z,2.60
2022-07-30T08:04:17.662Z,2.80
2022-07-30T08:06:44.445Z,2.80
2022-07-30T08:09:11.294Z,2.70
2022-07-30T08:11:38.139Z,2.80
2022-07-30T08:14:04.943Z,2.70
2022-07-30T08:16:31.824Z,3.30
2022-07-30T08:18:58.847Z,2.70
2022-07-30T08:21:25.660Z,2.50
2022-07-30T08:23:52.633Z,2.30
2022-07-30T08:26:19.411Z,2.20
2022-07-30T08:28:46.370Z,2.70
2022-07-30T08:31:13.269Z,2.70
2022-07-30T08:33:40.097Z,2.60
2022-07-30T08:36:09.727Z,2.10
2022-07-30T08:38:38.900Z,2.10
2022-07-30T08:41:06.893Z,2.50
2022-07-30T08:43:36.574Z,2.40
2022-07-30T08:46:08.982Z,2.20
2022-07-30T08:48:36.098Z,2.40
2022-07-30T08:51:03.975Z,2.40
2022-07-30T08:53:33.725Z,2.80
2022-07-30T08:56:01.825Z,2.50
2022-07-30T08:58:31.353Z,2.40
2022-07-30T09:00:58.259Z,2.50
2022-07-30T09:03:25.428Z,2.40
2022-07-30T09:05:52.343Z,2.40
2022-07-30T09:08:19.983Z,2.30
2022-07-30T09:10:52.771Z,2.80
2022-07-30T09:13:28.725Z,3.20
2022-07-30T09:15:56.523Z,2.80
2022-07-30T09:18:28.841Z,2.80
2022-07-30T09:20:56.347Z,2.80
2022-07-30T09:23:23.298Z,2.90
2022-07-30T09:25:51.421Z,2.60
2022-07-30T09:28:29.991Z,2.40
2022-07-30T09:30:57.798Z,2.60
2022-07-30T09:33:42.633Z,2.50
2022-07-30T09:36:16.652Z,2.50
2022-07-30T09:38:50.988Z,2.20
2022-07-30T09:41:40.930Z,2.20
2022-07-30T09:46:51.012Z,2.10
2022-07-30T09:49:24.753Z,2.10
2022-07-30T09:51:55.927Z,2.10
2022-07-30T09:54:50.746Z,2.40
2022-07-30T09:57:25.726Z,2.20
2022-07-30T09:59:56.882Z,2.90
2022-07-30T10:02:33.525Z,2.20
2022-07-30T10:05:14.305Z,2.20
2022-07-30T10:07:52.861Z,2.30
2022-07-30T10:10:25.649Z,2.20
2022-07-30T10:13:04.254Z,2.20
2022-07-30T10:15:34.828Z,2.20
2022-07-30T10:18:06.424Z,2.10
2022-07-30T10:20:34.974Z,2.20
2022-07-30T10:23:07.912Z,2.20
2022-07-30T10:25:49.325Z,2.00
2022-07-30T10:28:24.421Z,2.10
2022-07-30T10:30:54.203Z,2.10
2022-07-30T10:33:34.802Z,2.10
2022-07-30T10:36:05.187Z,1.80
2022-07-30T10:38:39.414Z,2.20
2022-07-30T10:41:42.724Z,2.10
2022-07-30T10:45:17.342Z,2.30
2022-07-30T10:47:49.049Z,2.00
2022-07-30T10:50:22.152Z,2.10
2022-07-30T10:52:53.069Z,1.90
2022-07-30T10:55:37.652Z,2.10
2022-07-30T10:58:14.468Z,2.10
2022-07-30T11:03:18.448Z,1.90
2022-07-30T11:05:48.583Z,2.20
2022-07-30T11:08:48.239Z,1.80
2022-07-30T11:12:02.018Z,2.00
2022-07-30T11:14:08.150Z,2.10
2022-07-30T11:16:34.973Z,1.80
2022-07-30T11:22:27.567Z,1.70
2022-07-30T11:24:55.951Z,2.40
2022-07-30T11:27:42.293Z,1.80
2022-07-30T11:30:15.384Z,2.10
2022-07-30T11:32:52.567Z,1.90
2022-07-30T11:35:32.220Z,2.00
2022-07-30T11:38:19.313Z,2.10
2022-07-30T11:40:49.062Z,1.90
2022-07-30T11:43:35.650Z,1.90
2022-07-30T11:46:30.210Z,1.70
2022-07-30T11:49:05.106Z,1.70
2022-07-30T11:51:44.465Z,1.80
2022-07-30T11:54:11.999Z,2.00
2022-07-30T11:57:00.740Z,1.90
2022-07-30T11:59:30.674Z,1.60
2022-07-30T12:02:01.118Z,1.90
2022-07-30T12:04:28.189Z,1.80
2022-07-30T12:06:55.093Z,1.80
2022-07-30T12:09:24.307Z,1.80
2022-07-30T12:11:56.587Z,1.80
2022-07-30T12:14:24.029Z,1.80
2022-07-30T12:16:54.455Z,1.80
2022-07-30T12:19:21.295Z,1.90
2022-07-30T12:21:53.045Z,2.00
2022-07-30T12:24:26.829Z,2.10
2022-07-30T12:27:06.970Z,2.30
2022-07-30T12:32:01.762Z,1.80
2022-07-30T12:34:28.745Z,2.00
2022-07-30T12:37:08.359Z,1.90
2022-07-30T12:39:35.311Z,1.90
2022-07-30T12:42:02.914Z,1.60
2022-07-30T12:44:40.983Z,1.70
2022-07-30T12:47:25.892Z,1.80
2022-07-30T12:49:55.353Z,1.80
2022-07-30T12:52:28.787Z,1.80
2022-07-30T12:55:10.774Z,1.60
2022-07-30T12:58:01.733Z,1.50
2022-07-30T13:00:52.331Z,1.90
2022-07-30T13:03:19.902Z,2.00
2022-07-30T13:05:49.800Z,1.70
2022-07-30T13:08:17.780Z,1.60
2022-07-30T13:11:00.823Z,1.60
2022-07-30T13:13:29.152Z,1.60
2022-07-30T13:16:05.942Z,1.70
2022-07-30T13:18:35.125Z,1.60
2022-07-30T13:21:04.697Z,1.70
2022-07-30T13:23:31.683Z,1.60
2022-07-30T13:25:58.551Z,1.90
2022-07-30T13:28:27.311Z,1.60
2022-07-30T13:30:55.927Z,1.60
2022-07-30T13:33:23.157Z,1.80
2022-07-30T13:35:50.001Z,1.70
2022-07-30T13:38:16.970Z,1.60
2022-07-30T13:40:44.198Z,1.70
2022-07-30T13:43:11.130Z,1.50
2022-07-30T13:45:38.012Z,1.50
2022-07-30T13:48:05.108Z,1.40
2022-07-30T13:50:32.195Z,1.50
2022-07-30T13:53:02.307Z,1.60
2022-07-30T13:55:30.667Z,1.60
2022-07-30T13:57:58.198Z,1.60
2022-07-30T14:00:31.234Z,1.70
2022-07-30T14:03:00.731Z,1.60
2022-07-30T14:05:28.375Z,1.60
2022-07-30T14:07:55.538Z,1.80
2022-07-30T14:10:23.395Z,1.60
2022-07-30T14:12:54.561Z,1.80
2022-07-30T14:15:26.802Z,1.40
2022-07-30T14:17:56.077Z,1.40
2022-07-30T14:20:23.882Z,1.50
2022-07-30T14:22:51.225Z,1.60
2022-07-30T14:25:19.038Z,1.60
2022-07-30T14:27:46.791Z,1.50
2022-07-30T14:30:15.117Z,1.70
2022-07-30T14:32:41.970Z,1.50
2022-07-30T14:35:10.325Z,1.60
2022-07-30T14:37:40.564Z,1.50
2022-07-30T14:42:42.281Z,1.30
2022-07-30T14:45:10.314Z,1.60
2022-07-30T14:47:38.796Z,1.60
2022-07-30T14:50:09.113Z,1.50
2022-07-30T14:55:07.908Z,1.70
2022-07-30T14:57:35.480Z,1.50
2022-07-30T15:00:07.592Z,1.50
2022-07-30T15:02:34.753Z,1.50
2022-07-30T15:05:01.630Z,1.40
2022-07-30T15:07:28.949Z,1.80
2022-07-30T15:09:55.967Z,1.30
2022-07-30T15:12:26.807Z,1.60
2022-07-30T15:14:54.076Z,1.50
2022-07-30T15:17:21.077Z,1.60
2022-07-30T15:19:50.519Z,1.60
2022-07-30T15:22:21.314Z,1.70
2022-07-30T15:24:48.701Z,1.70
2022-07-30T15:27:16.124Z,1.70
2022-07-30T15:29:43.889Z,1.80
2022-07-30T15:32:10.758Z,2.30
2022-07-30T15:34:37.607Z,2.00
2022-07-30T15:37:05.896Z,1.90
2022-07-30T15:39:33.702Z,1.40
2022-07-30T15:42:03.319Z,1.80
2022-07-30T15:44:31.013Z,1.60
2022-07-30T15:46:59.398Z,1.70
2022-07-30T15:49:28.635Z,1.80
2022-07-30T15:51:59.565Z,1.70
2022-07-30T15:54:27.015Z,1.70
2022-07-30T15:56:54.325Z,1.60
2022-07-30T15:59:29.818Z,1.50
2022-07-30T16:01:57.424Z,1.60
2022-07-30T16:04:31.053Z,1.50
2022-07-30T16:07:00.700Z,1.70
2022-07-30T16:09:27.944Z,1.70
2022-07-30T16:11:55.283Z,1.90
2022-07-30T16:14:23.297Z,1.50
2022-07-30T16:16:50.419Z,1.80
2022-07-30T16:19:17.404Z,1.80
2022-07-30T16:21:44.243Z,1.60
2022-07-30T16:24:11.060Z,1.80
2022-07-30T16:26:37.857Z,1.50
2022-07-30T16:29:05.017Z,2.10
2022-07-30T16:31:32.017Z,1.80
2022-07-30T16:33:58.992Z,1.70
2022-07-30T16:36:25.925Z,1.80
2022-07-30T16:38:52.821Z,1.80
2022-07-30T16:41:19.760Z,1.80
2022-07-30T16:43:46.540Z,2.40
2022-07-30T16:46:13.459Z,1.80
2022-07-30T16:48:40.398Z,1.80
2022-07-30T16:51:07.479Z,1.80
2022-07-30T16:53:36.673Z,1.80
2022-07-30T16:56:03.806Z,1.90
2022-07-30T16:58:31.178Z,1.70
2022-07-30T17:00:58.903Z,1.80
2022-07-30T17:03:26.554Z,1.60
2022-07-30T17:05:53.480Z,2.00
2022-07-30T17:08:24.587Z,1.80
2022-07-30T17:10:53.601Z,1.80
2022-07-30T17:13:21.170Z,1.90
2022-07-30T17:15:48.397Z,1.60
2022-07-30T17:18:16.578Z,1.90
2022-07-30T17:20:44.699Z,2.00
2022-07-30T17:23:11.935Z,1.90
2022-07-30T17:25:38.988Z,1.80
2022-07-30T17:28:05.972Z,2.10
2022-07-30T17:30:33.041Z,2.70
2022-07-30T17:32:59.984Z,2.20
2022-07-30T17:35:27.044Z,2.30
2022-07-30T17:37:53.977Z,2.30
2022-07-30T17:40:30.429Z,1.60
2022-07-30T17:43:02.753Z,2.00
2022-07-30T17:45:31.307Z,1.80
2022-07-30T17:47:58.338Z,1.90
2022-07-30T17:50:25.227Z,2.30
2022-07-30T17:52:52.249Z,1.90
2022-07-30T17:55:19.043Z,1.90
2022-07-30T17:57:45.955Z,2.20
2022-07-30T18:00:13.362Z,2.20
2022-07-30T18:02:40.191Z,2.00
2022-07-30T18:05:09.860Z,1.90
2022-07-30T18:07:37.289Z,2.00
2022-07-30T18:10:04.871Z,2.20
2022-07-30T18:12:31.739Z,1.80
2022-07-30T18:15:01.010Z,1.90
2022-07-30T18:17:27.954Z,2.00
2022-07-30T18:19:54.760Z,2.00
2022-07-30T18:22:29.385Z,2.00
2022-07-30T18:24:59.864Z,2.00
2022-07-30T18:27:26.966Z,2.30
2022-07-30T18:29:53.798Z,2.10
2022-07-30T18:32:21.426Z,2.10
2022-07-30T18:34:48.265Z,2.00
2022-07-30T18:37:15.118Z,2.10
2022-07-30T18:39:41.914Z,2.20
2022-07-30T18:42:08.889Z,2.30
2022-07-30T18:44:35.912Z,2.20
2022-07-30T18:47:02.856Z,2.10
2022-07-30T18:49:38.052Z,2.50
2022-07-30T18:52:07.031Z,2.00
2022-07-30T18:54:36.445Z,2.20
2022-07-30T18:57:04.397Z,2.40
2022-07-30T18:59:31.423Z,2.10
2022-07-30T19:01:58.465Z,2.40
2022-07-30T19:04:25.485Z,2.30
2022-07-30T19:06:52.423Z,2.50
2022-07-30T19:09:19.225Z,2.60
2022-07-30T19:11:46.127Z,2.50
2022-07-30T19:14:14.656Z,2.00
2022-07-30T19:16:43.120Z,2.00
2022-07-30T19:19:14.136Z,1.90
2022-07-30T19:21:41.245Z,1.80
2022-07-30T19:24:10.138Z,2.10
2022-07-30T19:26:39.064Z,2.10
2022-07-30T19:29:09.818Z,1.90
2022-07-30T19:31:36.715Z,1.90
2022-07-30T19:34:04.514Z,2.00
2022-07-30T19:36:31.588Z,2.30
2022-07-30T19:38:58.537Z,2.30
2022-07-30T19:41:25.476Z,2.00
2022-07-30T19:43:57.741Z,2.30
2022-07-30T19:46:25.251Z,2.30
2022-07-30T19:48:52.169Z,2.10
2022-07-30T19:54:06.340Z,1.80
2022-07-30T19:56:37.569Z,2.20
2022-07-30T19:59:14.638Z,2.10
2022-07-30T20:01:43.119Z,2.30
2022-07-30T20:04:10.755Z,2.10
2022-07-30T20:06:40.434Z,1.90
2022-07-30T20:09:14.566Z,2.50
2022-07-30T20:11:43.411Z,2.80
2022-07-30T20:14:10.364Z,2.40
2022-07-30T20:16:37.759Z,2.20
2022-07-30T20:19:05.014Z,2.50
2022-07-30T20:21:56.111Z,2.20
2022-07-30T20:24:19.932Z,2.30
2022-07-30T20:26:47.786Z,2.30
2022-07-30T20:29:19.392Z,2.50
2022-07-30T20:31:49.665Z,2.00
2022-07-30T20:34:20.149Z,2.40
2022-07-30T20:36:47.425Z,2.20
2022-07-30T20:39:18.506Z,2.20
2022-07-30T20:41:46.795Z,2.30
2022-07-30T20:44:23.637Z,2.30
2022-07-30T20:46:50.856Z,2.30
2022-07-30T20:49:24.245Z,2.00
2022-07-30T20:52:04.389Z,2.20
2022-07-30T20:54:32.190Z,1.90
2022-07-30T20:57:00.189Z,2.10
2022-07-30T20:59:28.601Z,2.10
2022-07-30T21:01:55.882Z,2.60
2022-07-30T21:04:25.750Z,2.50
2022-07-30T21:06:53.233Z,2.20
2022-07-30T21:09:20.277Z,2.00
2022-07-30T21:11:50.296Z,1.80
2022-07-30T21:14:19.482Z,1.90
2022-07-30T21:16:47.402Z,2.40
2022-07-30T21:19:16.917Z,1.90
2022-07-30T21:21:47.874Z,1.70
2022-07-30T21:24:19.582Z,2.30
2022-07-30T21:26:48.999Z,2.20
2022-07-30T21:29:17.747Z,2.20
2022-07-30T21:32:01.387Z,2.00
2022-07-30T21:34:36.022Z,2.40
2022-07-30T21:37:09.421Z,2.40
2022-07-30T21:39:39.903Z,2.00
2022-07-30T21:44:37.546Z,1.80
2022-07-30T21:47:10.483Z,2.00
2022-07-30T21:49:38.962Z,1.80
2022-07-30T21:52:08.106Z,2.40
2022-07-30T21:54:45.169Z,2.10
2022-07-30T21:57:26.429Z,2.10
2022-07-30T21:59:54.092Z,2.10
2022-07-30T22:02:23.838Z,2.00
2022-07-30T22:04:53.002Z,2.30
2022-07-30T22:07:21.825Z,2.00
2022-07-30T22:09:49.004Z,2.20
2022-07-30T22:12:18.120Z,2.00
2022-07-30T22:14:46.926Z,2.20
2022-07-30T22:17:23.943Z,2.00
2022-07-30T22:20:08.495Z,1.90
2022-07-30T22:22:36.366Z,2.10
2022-07-30T22:25:09.422Z,1.90
2022-07-30T22:27:39.877Z,2.30
2022-07-30T22:30:09.666Z,2.00
2022-07-30T22:32:37.753Z,2.10
2022-07-30T22:35:06.711Z,1.60
2022-07-30T22:37:34.241Z,1.80
2022-07-30T22:40:02.190Z,1.70
2022-07-30T22:42:28.985Z,1.60
2022-07-30T22:44:57.241Z,1.70
2022-07-30T22:47:53.883Z,1.60
2022-07-30T22:50:11.943Z,1.60
2022-07-30T22:52:39.969Z,1.70
2022-07-30T22:55:11.776Z,1.60
2022-07-30T22:57:40.209Z,1.90
2022-07-30T23:00:13.820Z,1.50
2022-07-30T23:02:42.148Z,1.90
2022-07-30T23:05:11.156Z,1.60
2022-07-30T23:07:39.751Z,1.80
2022-07-30T23:10:17.812Z,1.50
2022-07-30T23:12:15.157Z,2.00
2022-07-30T23:12:48.629Z,1.90
2022-07-30T23:15:16.351Z,1.90
2022-07-30T23:17:43.639Z,1.50
2022-07-30T23:20:16.068Z,1.60
2022-07-30T23:22:42.999Z,1.90
2022-07-30T23:25:11.456Z,1.80
2022-07-30T23:27:39.465Z,1.50
2022-07-30T23:30:09.073Z,1.50
2022-07-30T23:32:36.426Z,1.60
2022-07-30T23:35:04.754Z,1.60
2022-07-30T23:37:38.062Z,1.60
2022-07-30T23:40:17.893Z,1.70
2022-07-30T23:42:45.705Z,1.50
2022-07-30T23:45:12.617Z,1.50
2022-07-30T23:48:00.942Z,1.70
2022-07-30T23:50:26.990Z,2.30
2022-07-30T23:52:53.972Z,1.60
2022-07-30T23:55:20.854Z,1.80
2022-07-30T23:57:47.713Z,1.40
